createdAt,value
2023-02-01T00:01:11.240Z,101253.56
2023-02-01T00:03:39.005Z,101238.31
2023-02-01T00:06:06.705Z,101226.59
2023-02-01T00:08:34.468Z,101219.34
2023-02-01T00:11:07.988Z,101233.34
2023-02-01T00:13:39.165Z,101223.34
2023-02-01T00:16:17.364Z,101230.97
2023-02-01T00:18:47.066Z,101224.31
2023-02-01T00:21:17.037Z,101225.66
2023-02-01T00:23:45.138Z,101218.31
2023-02-01T00:26:29.983Z,101217.03
2023-02-01T00:28:57.801Z,101211.03
2023-02-01T00:31:27.663Z,101212.25
2023-02-01T00:33:56.757Z,101214.53
2023-02-01T00:36:24.447Z,101206.34
2023-02-01T00:38:52.028Z,101214.94
2023-02-01T00:41:22.784Z,101220.16
2023-02-01T00:43:51.590Z,101228.03
2023-02-01T00:46:20.487Z,101225.28
2023-02-01T00:48:48.709Z,101227.94
2023-02-01T00:51:20.230Z,101217.50
2023-02-01T00:53:47.925Z,101210.69
2023-02-01T00:56:15.651Z,101210.69
2023-02-01T00:58:45.695Z,101218.81
2023-02-01T01:01:26.891Z,101206.41
2023-02-01T01:03:58.443Z,101207.06
2023-02-01T01:06:29.832Z,101206.91
2023-02-01T01:08:59.702Z,101193.28
2023-02-01T01:11:30.532Z,101193.03
2023-02-01T01:13:59.636Z,101176.09
2023-02-01T01:16:29.680Z,101172.50
2023-02-01T01:18:58.339Z,101172.38
2023-02-01T01:21:26.677Z,101153.84
2023-02-01T01:23:55.007Z,101159.97
2023-02-01T01:26:38.366Z,101146.66
2023-02-01T01:29:06.240Z,101148.34
2023-02-01T01:31:33.908Z,101140.03
2023-02-01T01:34:01.760Z,101137.13
2023-02-01T01:36:30.627Z,101133.50
2023-02-01T01:38:58.490Z,101119.88
2023-02-01T01:41:30.777Z,101123.25
2023-02-01T01:44:07.722Z,101117.78
2023-02-01T01:46:41.899Z,101115.97
2023-02-01T01:49:15.130Z,101108.72
2023-02-01T01:51:53.969Z,101126.19
2023-02-01T01:54:29.110Z,101126.50
2023-02-01T01:57:00.210Z,101114.84
2023-02-01T01:59:28.620Z,101121.94
2023-02-01T02:01:56.999Z,101134.25
2023-02-01T02:04:26.024Z,101124.72
2023-02-01T02:07:03.281Z,101126.88
2023-02-01T02:09:30.959Z,101135.78
2023-02-01T02:11:59.963Z,101137.41
2023-02-01T02:14:28.424Z,101131.22
2023-02-01T02:17:17.725Z,101130.06
2023-02-01T02:19:57.024Z,101130.53
2023-02-01T02:22:40.144Z,101141.59
2023-02-01T02:25:33.083Z,101151.88
2023-02-01T02:28:24.029Z,101158.50
2023-02-01T02:31:25.228Z,101139.66
2023-02-01T02:34:11.378Z,101121.56
2023-02-01T02:36:51.866Z,101114.25
2023-02-01T02:39:22.449Z,101102.31
2023-02-01T02:42:11.785Z,101081.31
2023-02-01T02:45:10.504Z,101088.84
2023-02-01T02:47:44.837Z,101075.19
2023-02-01T02:50:45.858Z,101078.09
2023-02-01T02:53:58.176Z,101077.34
2023-02-01T02:56:46.718Z,101080.06
2023-02-01T02:59:37.000Z,101083.50
2023-02-01T03:02:23.147Z,101090.41
2023-02-01T03:04:57.833Z,101088.34
2023-02-01T03:07:45.241Z,101066.03
2023-02-01T03:10:35.295Z,101067.66
2023-02-01T03:13:09.900Z,101056.81
2023-02-01T03:15:44.622Z,101052.94
2023-02-01T03:18:22.429Z,101054.97
2023-02-01T03:20:54.697Z,101056.03
2023-02-01T03:23:27.128Z,101039.69
2023-02-01T03:25:57.676Z,101029.50
2023-02-01T03:28:28.942Z,101045.03
2023-02-01T03:30:56.966Z,101030.47
2023-02-01T03:33:27.281Z,101023.09
2023-02-01T03:36:13.627Z,101023.81
2023-02-01T03:38:51.676Z,101028.22
2023-02-01T03:41:37.329Z,101034.25
2023-02-01T03:44:15.560Z,101034.06
2023-02-01T03:47:13.784Z,101034.91
2023-02-01T03:49:46.719Z,101052.34
2023-02-01T03:52:29.969Z,101039.28
2023-02-01T03:54:59.822Z,101052.53
2023-02-01T03:57:38.458Z,101052.44
2023-02-01T04:00:17.505Z,101040.31
2023-02-01T04:02:46.141Z,101051.22
2023-02-01T04:05:13.769Z,101045.91
2023-02-01T04:07:48.195Z,101051.22
2023-02-01T04:10:18.772Z,101049.31
2023-02-01T04:12:47.328Z,101067.66
2023-02-01T04:15:15.208Z,101055.00
2023-02-01T04:17:42.801Z,101039.56
2023-02-01T04:20:11.008Z,101050.63
2023-02-01T04:22:38.619Z,101057.56
2023-02-01T04:25:06.943Z,101041.53
2023-02-01T04:27:35.311Z,101062.66
2023-02-01T04:30:05.073Z,101054.69
2023-02-01T04:32:32.651Z,101052.81
2023-02-01T04:35:00.210Z,101067.75
2023-02-01T04:37:27.840Z,101051.84
2023-02-01T04:39:55.558Z,101061.34
2023-02-01T04:42:23.293Z,101073.53
2023-02-01T04:44:50.918Z,101084.84
2023-02-01T04:47:18.524Z,101079.13
2023-02-01T04:49:46.688Z,101081.56
2023-02-01T04:52:14.246Z,101079.50
2023-02-01T04:54:41.839Z,101072.97
2023-02-01T04:57:09.508Z,101070.78
2023-02-01T04:59:37.035Z,101087.81
2023-02-01T05:02:04.643Z,101108.66
2023-02-01T05:04:32.421Z,101104.84
2023-02-01T05:07:00.127Z,101106.28
2023-02-01T05:09:27.673Z,101135.94
2023-02-01T05:12:13.859Z,101135.94
2023-02-01T05:14:41.477Z,101154.78
2023-02-01T05:17:09.052Z,101181.75
2023-02-01T05:19:36.754Z,101160.91
2023-02-01T05:22:04.311Z,101157.78
2023-02-01T05:24:32.048Z,101145.25
2023-02-01T05:26:59.668Z,101145.94
2023-02-01T05:29:27.237Z,101151.16
2023-02-01T05:31:54.978Z,101155.28
2023-02-01T05:34:22.728Z,101147.78
2023-02-01T05:36:50.357Z,101145.63
2023-02-01T05:39:18.285Z,101142.19
2023-02-01T05:41:46.053Z,101155.44
2023-02-01T05:44:13.726Z,101163.34
2023-02-01T05:46:41.408Z,101162.28
2023-02-01T05:49:09.398Z,101172.88
2023-02-01T05:51:36.969Z,101186.25
2023-02-01T05:54:04.683Z,101187.75
2023-02-01T05:56:32.854Z,101188.53
2023-02-01T06:01:27.713Z,101211.94
2023-02-01T06:03:55.384Z,101214.41
2023-02-01T06:06:22.998Z,101229.28
2023-02-01T06:08:50.648Z,101227.38
2023-02-01T06:11:31.782Z,101215.06
2023-02-01T06:14:00.935Z,101229.28
2023-02-01T06:16:29.008Z,101196.78
2023-02-01T06:18:56.884Z,101204.34
2023-02-01T06:21:24.943Z,101211.41
2023-02-01T06:23:58.635Z,101213.75
2023-02-01T06:26:26.978Z,101224.22
2023-02-01T06:28:54.617Z,101214.03
2023-02-01T06:31:22.759Z,101225.84
2023-02-01T06:33:50.959Z,101223.69
2023-02-01T06:36:19.816Z,101214.28
2023-02-01T06:38:47.415Z,101231.38
2023-02-01T06:41:15.025Z,101240.53
2023-02-01T06:43:42.575Z,101242.56
2023-02-01T06:46:13.507Z,101228.56
2023-02-01T06:48:41.495Z,101231.41
2023-02-01T06:51:32.461Z,101239.53
2023-02-01T06:54:00.114Z,101244.81
2023-02-01T06:56:28.385Z,101251.03
2023-02-01T06:58:56.632Z,101256.31
2023-02-01T07:01:24.237Z,101273.16
2023-02-01T07:03:54.740Z,101265.06
2023-02-01T07:06:22.525Z,101273.41
2023-02-01T07:08:50.228Z,101288.13
2023-02-01T07:11:20.761Z,101284.34
2023-02-01T07:13:48.783Z,101266.69
2023-02-01T07:16:20.167Z,101267.78
2023-02-01T07:18:48.366Z,101273.41
2023-02-01T07:21:16.020Z,101280.84
2023-02-01T07:23:43.687Z,101276.66
2023-02-01T07:26:14.238Z,101279.47
2023-02-01T07:28:42.550Z,101284.06
2023-02-01T07:31:16.668Z,101290.38
2023-02-01T07:33:44.309Z,101301.25
2023-02-01T07:36:15.106Z,101307.66
2023-02-01T07:38:43.367Z,101301.63
2023-02-01T07:41:11.673Z,101314.28
2023-02-01T07:43:39.354Z,101317.94
2023-02-01T07:46:08.106Z,101324.06
2023-02-01T07:48:35.988Z,101331.16
2023-02-01T07:51:10.568Z,101333.06
2023-02-01T07:53:39.324Z,101331.25
2023-02-01T07:56:19.432Z,101335.59
2023-02-01T07:59:00.922Z,101334.59
2023-02-01T08:01:30.567Z,101343.13
2023-02-01T08:04:00.439Z,101337.50
2023-02-01T08:06:29.996Z,101338.91
2023-02-01T08:08:58.370Z,101346.44
2023-02-01T08:11:27.164Z,101344.38
2023-02-01T08:13:55.609Z,101344.16
2023-02-01T08:16:24.516Z,101345.59
2023-02-01T08:18:53.653Z,101349.88
2023-02-01T08:21:24.939Z,101358.44
2023-02-01T08:23:52.999Z,101363.59
2023-02-01T08:26:23.762Z,101358.97
2023-02-01T08:29:04.284Z,101366.75
2023-02-01T08:31:32.259Z,101371.03
2023-02-01T08:34:02.128Z,101373.59
2023-02-01T08:36:31.667Z,101370.94
2023-02-01T08:38:59.559Z,101372.63
2023-02-01T08:41:30.405Z,101373.53
2023-02-01T08:43:58.684Z,101361.06
2023-02-01T08:46:26.898Z,101377.56
2023-02-01T08:48:54.574Z,101382.59
2023-02-01T08:51:23.474Z,101392.09
2023-02-01T08:53:51.232Z,101403.13
2023-02-01T08:56:20.147Z,101405.47
2023-02-01T08:58:47.872Z,101413.94
2023-02-01T09:01:18.120Z,101399.47
2023-02-01T09:03:46.653Z,101408.13
2023-02-01T09:06:16.464Z,101415.13
2023-02-01T09:08:44.823Z,101414.09
2023-02-01T09:11:17.802Z,101412.91
2023-02-01T09:13:45.733Z,101409.03
2023-02-01T09:16:13.568Z,101405.09
2023-02-01T09:18:50.665Z,101403.13
2023-02-01T09:21:24.604Z,101411.66
2023-02-01T09:23:52.654Z,101412.28
2023-02-01T09:26:26.600Z,101412.00
2023-02-01T09:28:58.144Z,101424.06
2023-02-01T09:31:25.928Z,101424.63
2023-02-01T09:33:53.554Z,101433.03
2023-02-01T09:36:21.199Z,101425.56
2023-02-01T09:38:52.808Z,101435.72
2023-02-01T09:41:59.407Z,101435.34
2023-02-01T09:45:04.553Z,101450.09
2023-02-01T09:47:32.844Z,101447.13
2023-02-01T09:50:18.100Z,101444.31
2023-02-01T09:53:01.599Z,101453.66
2023-02-01T09:55:43.710Z,101443.69
2023-02-01T09:58:23.468Z,101432.59
2023-02-01T10:01:01.949Z,101439.44
2023-02-01T10:03:33.695Z,101443.72
2023-02-01T10:06:07.195Z,101438.31
2023-02-01T10:08:44.149Z,101443.63
2023-02-01T10:11:49.454Z,101449.50
2023-02-01T10:14:27.022Z,101438.59
2023-02-01T10:17:13.009Z,101437.53
2023-02-01T10:19:58.002Z,101440.88
2023-02-01T10:23:04.949Z,101438.88
2023-02-01T10:26:10.979Z,101445.81
2023-02-01T10:28:40.497Z,101454.19
2023-02-01T10:31:11.316Z,101452.66
2023-02-01T10:34:00.287Z,101457.69
2023-02-01T10:36:36.845Z,101457.31
2023-02-01T10:39:08.900Z,101463.28
2023-02-01T10:41:40.324Z,101463.88
2023-02-01T10:44:15.327Z,101465.84
2023-02-01T10:46:43.041Z,101465.69
2023-02-01T10:49:39.903Z,101475.13
2023-02-01T10:52:18.566Z,101481.72
2023-02-01T10:54:46.195Z,101487.19
2023-02-01T10:57:27.062Z,101479.00
2023-02-01T10:59:55.195Z,101483.16
2023-02-01T11:02:32.377Z,101488.84
2023-02-01T11:05:05.997Z,101484.69
2023-02-01T11:07:33.919Z,101486.00
2023-02-01T11:10:02.956Z,101499.44
2023-02-01T11:12:37.835Z,101478.41
2023-02-01T11:15:25.873Z,101500.28
2023-02-01T11:17:55.841Z,101494.84
2023-02-01T11:20:32.607Z,101489.16
2023-02-01T11:23:01.184Z,101494.28
2023-02-01T11:25:29.297Z,101493.41
2023-02-01T11:27:57.891Z,101491.75
2023-02-01T11:30:40.089Z,101495.41
2023-02-01T11:33:13.574Z,101499.00
2023-02-01T11:35:43.318Z,101498.28
2023-02-01T11:38:37.460Z,101506.56
2023-02-01T11:41:26.901Z,101504.78
2023-02-01T11:43:58.047Z,101511.38
2023-02-01T11:46:35.330Z,101500.28
2023-02-01T11:49:35.332Z,101512.38
2023-02-01T11:52:15.186Z,101510.13
2023-02-01T11:55:21.227Z,101501.25
2023-02-01T11:58:13.349Z,101509.97
2023-02-01T12:00:46.722Z,101511.53
2023-02-01T12:03:26.570Z,101514.78
2023-02-01T12:06:06.183Z,101521.16
2023-02-01T12:08:42.620Z,101522.31
2023-02-01T12:11:19.795Z,101514.63
2023-02-01T12:13:59.750Z,101507.50
2023-02-01T12:17:05.551Z,101517.38
2023-02-01T12:19:56.102Z,101510.25
2023-02-01T12:22:39.958Z,101514.84
2023-02-01T12:25:23.384Z,101517.38
2023-02-01T12:28:23.245Z,101514.41
2023-02-01T12:31:25.114Z,101512.22
2023-02-01T12:34:14.074Z,101514.47
2023-02-01T12:37:03.017Z,101519.59
2023-02-01T12:39:39.835Z,101518.09
2023-02-01T12:42:22.980Z,101518.22
2023-02-01T12:44:53.127Z,101520.97
2023-02-01T12:47:27.946Z,101515.63
2023-02-01T12:50:22.810Z,101520.19
2023-02-01T12:52:53.332Z,101511.56
2023-02-01T12:55:25.348Z,101496.53
2023-02-01T12:58:15.116Z,101496.53
2023-02-01T13:00:50.260Z,101495.56
2023-02-01T13:03:30.020Z,101504.34
2023-02-01T13:06:21.672Z,101503.28
2023-02-01T13:08:58.305Z,101502.03
2023-02-01T13:11:43.408Z,101505.56
2023-02-01T13:14:17.613Z,101506.28
2023-02-01T13:16:49.098Z,101508.56
2023-02-01T13:19:30.519Z,101508.25
2023-02-01T13:22:08.792Z,101506.91
2023-02-01T13:25:17.804Z,101504.03
2023-02-01T13:27:47.503Z,101510.28
2023-02-01T13:30:19.380Z,101508.06
2023-02-01T13:33:52.887Z,101512.81
2023-02-01T13:35:52.795Z,101505.88
2023-02-01T13:38:32.540Z,101500.75
2023-02-01T13:41:09.486Z,101501.94
2023-02-01T13:43:40.222Z,101498.50
2023-02-01T13:46:14.499Z,101499.56
2023-02-01T13:48:48.285Z,101497.84
2023-02-01T13:51:18.597Z,101494.34
2023-02-01T13:53:49.765Z,101486.34
2023-02-01T13:56:23.546Z,101487.31
2023-02-01T13:58:52.534Z,101488.34
2023-02-01T14:01:23.282Z,101494.53
2023-02-01T14:03:58.215Z,101495.56
2023-02-01T14:06:29.026Z,101492.19
2023-02-01T14:09:14.605Z,101487.91
2023-02-01T14:11:52.712Z,101483.53
2023-02-01T14:14:20.289Z,101497.69
2023-02-01T14:16:54.465Z,101500.44
2023-02-01T14:19:29.554Z,101495.25
2023-02-01T14:22:02.783Z,101499.59
2023-02-01T14:24:33.008Z,101504.19
2023-02-01T14:27:19.503Z,101499.06
2023-02-01T14:29:59.084Z,101495.75
2023-02-01T14:32:32.702Z,101495.94
2023-02-01T14:35:03.155Z,101500.56
2023-02-01T14:37:36.519Z,101494.72
2023-02-01T14:40:20.563Z,101495.88
2023-02-01T14:42:53.692Z,101505.75
2023-02-01T14:45:24.687Z,101500.63
2023-02-01T14:48:08.180Z,101511.44
2023-02-01T14:50:43.896Z,101511.56
2023-02-01T14:53:11.820Z,101511.66
2023-02-01T14:55:50.324Z,101509.09
2023-02-01T14:58:33.301Z,101513.47
2023-02-01T15:01:04.043Z,101510.91
2023-02-01T15:04:02.642Z,101515.47
2023-02-01T15:06:32.103Z,101510.22
2023-02-01T15:09:04.610Z,101510.31
2023-02-01T15:11:32.333Z,101511.28
2023-02-01T15:14:01.550Z,101505.97
2023-02-01T15:16:29.320Z,101510.31
2023-02-01T15:19:11.872Z,101500.66
2023-02-01T15:21:49.663Z,101514.88
2023-02-01T15:24:24.668Z,101519.31
2023-02-01T15:26:54.481Z,101515.03
2023-02-01T15:29:28.621Z,101519.63
2023-02-01T15:31:56.569Z,101515.16
2023-02-01T15:34:24.528Z,101524.94
2023-02-01T15:37:07.637Z,101533.84
2023-02-01T15:39:36.538Z,101529.47
2023-02-01T15:42:16.572Z,101528.75
2023-02-01T15:44:47.229Z,101526.16
2023-02-01T15:47:21.687Z,101520.94
2023-02-01T15:49:55.506Z,101518.47
2023-02-01T15:52:29.017Z,101525.69
2023-02-01T15:55:00.841Z,101525.03
2023-02-01T15:57:37.063Z,101525.09
2023-02-01T16:00:22.575Z,101532.34
2023-02-01T16:02:59.656Z,101530.81
2023-02-01T16:05:43.624Z,101524.81
2023-02-01T16:08:23.201Z,101523.22
2023-02-01T16:10:55.828Z,101519.72
2023-02-01T16:13:23.459Z,101535.75
2023-02-01T16:15:51.261Z,101526.06
2023-02-01T16:18:19.263Z,101521.69
2023-02-01T16:20:48.859Z,101522.56
2023-02-01T16:23:16.594Z,101506.69
2023-02-01T16:25:44.950Z,101500.59
2023-02-01T16:28:12.554Z,101498.03
2023-02-01T16:30:40.670Z,101506.00
2023-02-01T16:33:16.238Z,101506.88
2023-02-01T16:35:44.167Z,101499.84
2023-02-01T16:38:14.141Z,101505.16
2023-02-01T16:40:44.402Z,101510.47
2023-02-01T16:43:24.136Z,101508.78
2023-02-01T16:45:54.349Z,101507.72
2023-02-01T16:48:31.623Z,101505.06
2023-02-01T16:51:09.511Z,101497.94
2023-02-01T16:53:53.116Z,101502.50
2023-02-01T16:56:23.134Z,101507.72
2023-02-01T16:58:51.339Z,101509.53
2023-02-01T17:01:20.054Z,101506.78
2023-02-01T17:03:48.364Z,101511.22
2023-02-01T17:06:19.262Z,101508.38
2023-02-01T17:08:51.324Z,101513.69
2023-02-01T17:11:19.105Z,101516.28
2023-02-01T17:13:46.906Z,101520.63
2023-02-01T17:16:41.312Z,101521.41
2023-02-01T17:19:19.011Z,101523.88
2023-02-01T17:21:59.751Z,101523.78
2023-02-01T17:24:42.415Z,101521.97
2023-02-01T17:27:17.742Z,101532.53
2023-02-01T17:29:47.209Z,101539.53
2023-02-01T17:32:21.652Z,101543.06
2023-02-01T17:34:49.888Z,101541.34
2023-02-01T17:37:34.607Z,101539.72
2023-02-01T17:40:02.294Z,101548.75
2023-02-01T17:42:30.788Z,101541.84
2023-02-01T17:45:01.942Z,101540.09
2023-02-01T17:47:29.557Z,101534.88
2023-02-01T17:49:57.342Z,101536.69
2023-02-01T17:52:26.330Z,101529.75
2023-02-01T17:54:54.348Z,101540.28
2023-02-01T17:57:22.708Z,101542.94
2023-02-01T17:59:50.359Z,101535.84
2023-02-01T18:02:20.944Z,101526.81
2023-02-01T18:04:49.735Z,101539.16
2023-02-01T18:07:17.855Z,101525.88
2023-02-01T18:09:45.650Z,101517.06
2023-02-01T18:12:21.526Z,101517.91
2023-02-01T18:14:49.305Z,101509.16
2023-02-01T18:17:16.958Z,101514.47
2023-02-01T18:19:44.606Z,101528.53
2023-02-01T18:22:22.368Z,101523.03
2023-02-01T18:24:50.108Z,101521.03
2023-02-01T18:27:17.661Z,101517.25
2023-02-01T18:29:45.219Z,101521.41
2023-02-01T18:32:13.067Z,101520.25
2023-02-01T18:34:41.119Z,101526.16
2023-02-01T18:37:09.046Z,101517.16
2023-02-01T18:39:37.642Z,101510.88
2023-02-01T18:42:05.246Z,101518.66
2023-02-01T18:44:32.813Z,101527.25
2023-02-01T18:47:00.811Z,101526.28
2023-02-01T18:49:28.554Z,101528.75
2023-02-01T18:51:56.206Z,101521.56
2023-02-01T18:54:24.738Z,101524.94
2023-02-01T18:56:52.386Z,101527.41
2023-02-01T18:59:20.133Z,101513.91
2023-02-01T19:01:47.881Z,101524.38
2023-02-01T19:04:23.217Z,101524.19
2023-02-01T19:06:53.889Z,101525.81
2023-02-01T19:09:21.704Z,101521.22
2023-02-01T19:11:49.278Z,101531.84
2023-02-01T19:14:16.974Z,101518.47
2023-02-01T19:16:44.620Z,101526.47
2023-02-01T19:19:12.201Z,101521.13
2023-02-01T19:21:39.822Z,101522.94
2023-02-01T19:24:07.795Z,101528.28
2023-02-01T19:26:35.504Z,101527.41
2023-02-01T19:29:03.239Z,101533.59
2023-02-01T19:31:30.926Z,101531.78
2023-02-01T19:33:58.453Z,101527.41
2023-02-01T19:36:27.490Z,101529.00
2023-02-01T19:38:55.449Z,101526.25
2023-02-01T19:41:23.129Z,101532.44
2023-02-01T19:43:50.768Z,101534.91
2023-02-01T19:46:18.488Z,101535.75
2023-02-01T19:48:46.275Z,101532.25
2023-02-01T19:51:13.866Z,101532.25
2023-02-01T19:53:41.725Z,101540.88
2023-02-01T19:56:09.394Z,101545.25
2023-02-01T19:58:37.020Z,101541.72
2023-02-01T20:01:06.080Z,101542.50
2023-02-01T20:03:34.237Z,101542.59
2023-02-01T20:06:02.385Z,101534.59
2023-02-01T20:08:30.145Z,101523.03
2023-02-01T20:10:58.157Z,101520.34
2023-02-01T20:13:25.951Z,101521.94
2023-02-01T20:15:59.461Z,101526.34
2023-02-01T20:18:28.339Z,101521.00
2023-02-01T20:20:57.598Z,101534.13
2023-02-01T20:23:26.129Z,101533.03
2023-02-01T20:25:54.845Z,101530.31
2023-02-01T20:28:22.896Z,101540.84
2023-02-01T20:30:50.572Z,101537.25
2023-02-01T20:33:18.833Z,101538.09
2023-02-01T20:35:46.397Z,101531.94
2023-02-01T20:38:15.151Z,101526.69
2023-02-01T20:40:46.357Z,101535.50
2023-02-01T20:43:14.274Z,101528.41
2023-02-01T20:45:43.426Z,101525.75
2023-02-01T20:48:12.586Z,101537.13
2023-02-01T20:50:41.584Z,101540.56
2023-02-01T20:53:12.779Z,101543.88
2023-02-01T20:55:44.769Z,101545.50
2023-02-01T20:58:12.355Z,101547.00
2023-02-01T21:00:40.005Z,101544.91
2023-02-01T21:03:07.969Z,101547.44
2023-02-01T21:05:41.938Z,101550.00
2023-02-01T21:08:13.253Z,101556.84
2023-02-01T21:10:41.493Z,101562.06
2023-02-01T21:13:09.440Z,101569.03
2023-02-01T21:15:37.696Z,101555.69
2023-02-01T21:18:06.827Z,101552.19
2023-02-01T21:20:34.616Z,101551.34
2023-02-01T21:23:02.404Z,101563.69
2023-02-01T21:25:30.121Z,101560.06
2023-02-01T21:27:58.071Z,101556.53
2023-02-01T21:30:25.808Z,101564.44
2023-02-01T21:32:53.711Z,101566.03
2023-02-01T21:35:21.549Z,101571.28
2023-02-01T21:37:49.466Z,101577.25
2023-02-01T21:40:17.516Z,101569.91
2023-02-01T21:42:45.962Z,101570.69
2023-02-01T21:45:16.178Z,101570.38
2023-02-01T21:47:43.995Z,101583.59
2023-02-01T21:50:17.580Z,101585.19
2023-02-01T21:52:45.942Z,101591.41
2023-02-01T21:55:14.415Z,101579.00
2023-02-01T21:57:42.780Z,101577.19
2023-02-01T22:00:13.365Z,101576.16
2023-02-01T22:02:41.153Z,101577.00
2023-02-01T22:05:10.108Z,101580.63
2023-02-01T22:07:37.951Z,101585.94
2023-02-01T22:10:06.560Z,101585.19
2023-02-01T22:12:34.293Z,101586.06
2023-02-01T22:15:03.639Z,101583.59
2023-02-01T22:17:31.697Z,101587.19
2023-02-01T22:19:59.587Z,101587.41
2023-02-01T22:22:27.358Z,101588.38
2023-02-01T22:24:55.148Z,101583.25
2023-02-01T22:27:22.958Z,101579.72
2023-02-01T22:30:11.637Z,101585.91
2023-02-01T22:32:39.342Z,101587.72
2023-02-01T22:35:07.521Z,101580.69
2023-02-01T22:37:35.085Z,101577.16
2023-02-01T22:40:04.802Z,101582.38
2023-02-01T22:42:32.448Z,101582.38
2023-02-01T22:45:01.467Z,101582.94
2023-02-01T22:47:29.323Z,101586.28
2023-02-01T22:49:56.872Z,101584.34
2023-02-01T22:52:24.422Z,101585.19
2023-02-01T22:54:52.097Z,101587.78
2023-02-01T22:57:19.619Z,101585.00
2023-02-01T22:59:47.244Z,101577.00
2023-02-01T23:02:14.935Z,101577.00
2023-02-01T23:04:42.543Z,101565.41
2023-02-01T23:07:10.076Z,101577.97
2023-02-01T23:09:37.706Z,101569.00
2023-02-01T23:12:05.473Z,101562.94
2023-02-01T23:14:33.039Z,101566.44
2023-02-01T23:17:00.595Z,101560.34
2023-02-01T23:19:28.164Z,101555.03
2023-02-01T23:21:55.736Z,101537.34
2023-02-01T23:24:23.342Z,101550.66
2023-02-01T23:26:50.978Z,101541.69
2023-02-01T23:29:18.825Z,101538.19
2023-02-01T23:31:46.743Z,101545.22
2023-02-01T23:34:14.313Z,101538.00
2023-02-01T23:36:41.900Z,101534.47
2023-02-01T23:39:09.513Z,101538.84
2023-02-01T23:41:37.082Z,101536.16
2023-02-01T23:44:04.790Z,101545.00
2023-02-01T23:46:33.709Z,101560.06
2023-02-01T23:49:02.536Z,101551.09
2023-02-01T23:51:31.077Z,101557.28
2023-02-01T23:53:59.868Z,101563.38
2023-02-01T23:56:36.338Z,101572.31
2023-02-01T23:59:06.641Z,101570.63
